createdAt,value
2022-12-28T00:01:33.847Z,99553.03
2022-12-28T00:04:05.669Z,99552.66
2022-12-28T00:06:34.417Z,99544.56
2022-12-28T00:09:02.590Z,99540.63
2022-12-28T00:11:30.899Z,99541.81
2022-12-28T00:14:01.081Z,99541.88
2022-12-28T00:16:36.873Z,99540.41
2022-12-28T00:19:07.106Z,99543.16
2022-12-28T00:21:34.282Z,99539.84
2022-12-28T00:24:02.564Z,99532.06
2022-12-28T00:26:32.696Z,99533.19
2022-12-28T00:29:04.859Z,99534.75
2022-12-28T00:31:33.870Z,99530.69
2022-12-28T00:34:01.420Z,99510.53
2022-12-28T00:37:10.368Z,99510.72
2022-12-28T00:39:15.257Z,99500.13
2022-12-28T00:41:42.083Z,99498.97
2022-12-28T00:44:09.158Z,99496.22
2022-12-28T00:46:36.157Z,99487.97
2022-12-28T00:49:03.271Z,99489.06
2022-12-28T00:51:30.069Z,99478.34
2022-12-28T00:53:56.927Z,99468.50
2022-12-28T00:56:24.359Z,99468.97
2022-12-28T00:58:56.398Z,99467.34
2022-12-28T01:01:24.133Z,99468.84
2022-12-28T01:03:51.637Z,99461.72
2022-12-28T01:06:19.759Z,99458.38
2022-12-28T01:08:46.737Z,99455.28
2022-12-28T01:11:20.120Z,99457.63
2022-12-28T01:13:48.171Z,99456.69
2022-12-28T01:16:35.296Z,99449.56
2022-12-28T01:19:05.565Z,99447.84
2022-12-28T01:21:34.215Z,99444.31
2022-12-28T01:24:04.250Z,99452.03
2022-12-28T01:26:31.423Z,99450.41
2022-12-28T01:28:58.556Z,99457.59
2022-12-28T01:31:26.390Z,99449.09
2022-12-28T01:33:54.009Z,99442.34
2022-12-28T01:36:23.787Z,99439.78
2022-12-28T01:38:57.296Z,99438.28
2022-12-28T01:41:25.093Z,99434.88
2022-12-28T01:43:51.830Z,99433.50
2022-12-28T01:46:43.713Z,99423.94
2022-12-28T01:49:24.720Z,99427.31
2022-12-28T01:51:54.710Z,99422.53
2022-12-28T01:54:24.616Z,99418.22
2022-12-28T01:56:52.027Z,99418.91
2022-12-28T01:59:22.139Z,99417.28
2022-12-28T02:01:49.263Z,99417.06
2022-12-28T02:04:16.361Z,99418.22
2022-12-28T02:06:43.642Z,99410.75
2022-12-28T02:09:16.652Z,99406.19
2022-12-28T02:11:43.997Z,99401.53
2022-12-28T02:14:13.085Z,99401.31
2022-12-28T02:16:40.138Z,99393.38
2022-12-28T02:19:09.855Z,99387.44
2022-12-28T02:21:54.994Z,99383.31
2022-12-28T02:24:46.941Z,99376.53
2022-12-28T02:27:34.179Z,99362.16
2022-12-28T02:30:04.034Z,99360.06
2022-12-28T02:32:39.803Z,99354.00
2022-12-28T02:35:33.395Z,99349.03
2022-12-28T02:38:10.420Z,99341.59
2022-12-28T02:40:51.996Z,99329.50
2022-12-28T02:43:18.937Z,99330.91
2022-12-28T02:46:06.476Z,99331.78
2022-12-28T02:49:02.126Z,99321.97
2022-12-28T02:51:53.539Z,99323.41
2022-12-28T02:55:06.489Z,99315.69
2022-12-28T02:57:59.441Z,99324.53
2022-12-28T03:00:32.788Z,99332.44
2022-12-28T03:03:07.547Z,99328.53
2022-12-28T03:06:33.742Z,99323.72
2022-12-28T03:09:16.288Z,99312.66
2022-12-28T03:11:59.020Z,99312.91
2022-12-28T03:14:57.144Z,99304.84
2022-12-28T03:17:46.490Z,99311.03
2022-12-28T03:20:41.697Z,99314.28
2022-12-28T03:23:30.290Z,99306.81
2022-12-28T03:26:19.788Z,99300.38
2022-12-28T03:29:06.052Z,99297.19
2022-12-28T03:31:34.704Z,99290.84
2022-12-28T03:34:08.999Z,99281.72
2022-12-28T03:36:54.368Z,99284.69
2022-12-28T03:39:47.675Z,99276.16
2022-12-28T03:42:37.200Z,99275.69
2022-12-28T03:45:45.882Z,99274.84
2022-12-28T03:48:10.332Z,99261.97
2022-12-28T03:50:41.783Z,99271.44
2022-12-28T03:53:09.610Z,99276.31
2022-12-28T03:55:37.887Z,99264.22
2022-12-28T03:58:06.185Z,99276.59
2022-12-28T04:00:33.339Z,99268.03
2022-12-28T04:03:00.336Z,99259.97
2022-12-28T04:05:27.183Z,99259.41
2022-12-28T04:07:54.049Z,99251.34
2022-12-28T04:10:20.819Z,99245.47
2022-12-28T04:12:47.542Z,99230.47
2022-12-28T04:15:14.391Z,99236.41
2022-12-28T04:17:41.096Z,99237.81
2022-12-28T04:20:08.424Z,99234.06
2022-12-28T04:22:35.211Z,99236.97
2022-12-28T04:25:01.943Z,99234.56
2022-12-28T04:27:28.707Z,99247.50
2022-12-28T04:29:55.467Z,99234.34
2022-12-28T04:32:22.179Z,99233.28
2022-12-28T04:34:49.200Z,99226.53
2022-12-28T04:37:16.251Z,99224.94
2022-12-28T04:39:55.374Z,99220.63
2022-12-28T04:42:27.043Z,99221.41
2022-12-28T04:44:53.926Z,99220.84
2022-12-28T04:47:20.659Z,99221.34
2022-12-28T04:49:47.457Z,99214.41
2022-12-28T04:52:14.317Z,99219.59
2022-12-28T04:54:41.019Z,99217.72
2022-12-28T04:57:07.851Z,99206.16
2022-12-28T04:59:34.659Z,99210.66
2022-12-28T05:02:01.498Z,99210.66
2022-12-28T05:04:28.440Z,99209.28
2022-12-28T05:06:55.148Z,99207.41
2022-12-28T05:09:21.962Z,99203.66
2022-12-28T05:11:48.819Z,99207.22
2022-12-28T05:14:18.400Z,99208.09
2022-12-28T05:16:45.131Z,99208.34
2022-12-28T05:19:11.929Z,99212.16
2022-12-28T05:21:40.113Z,99216.75
2022-12-28T05:24:07.401Z,99213.88
2022-12-28T05:26:35.461Z,99212.81
2022-12-28T05:29:02.671Z,99207.16
2022-12-28T05:31:29.575Z,99206.66
2022-12-28T05:33:56.422Z,99206.94
2022-12-28T05:36:26.224Z,99209.13
2022-12-28T05:38:54.632Z,99201.28
2022-12-28T05:41:28.235Z,99202.13
2022-12-28T05:43:57.190Z,99194.25
2022-12-28T05:46:27.221Z,99183.25
2022-12-28T05:48:56.930Z,99179.47
2022-12-28T05:51:26.366Z,99188.28
2022-12-28T05:53:53.186Z,99174.63
2022-12-28T05:56:26.160Z,99172.53
2022-12-28T05:58:57.239Z,99170.13
2022-12-28T06:01:27.055Z,99160.75
2022-12-28T06:03:56.817Z,99160.75
2022-12-28T06:06:23.967Z,99156.75
2022-12-28T06:08:51.721Z,99153.25
2022-12-28T06:11:24.452Z,99159.19
2022-12-28T06:13:51.925Z,99164.88
2022-12-28T06:16:21.968Z,99161.66
2022-12-28T06:18:49.244Z,99167.59
2022-12-28T06:21:18.230Z,99167.66
2022-12-28T06:23:45.686Z,99159.31
2022-12-28T06:26:15.504Z,99157.41
2022-12-28T06:28:42.957Z,99164.63
2022-12-28T06:31:17.305Z,99168.72
2022-12-28T06:33:45.105Z,99175.16
2022-12-28T06:36:19.838Z,99170.84
2022-12-28T06:38:48.973Z,99164.88
2022-12-28T06:41:17.393Z,99159.31
2022-12-28T06:43:45.378Z,99154.91
2022-12-28T06:46:13.417Z,99149.19
2022-12-28T06:48:41.156Z,99146.25
2022-12-28T06:51:22.518Z,99147.91
2022-12-28T06:53:50.875Z,99156.06
2022-12-28T06:56:22.788Z,99138.38
2022-12-28T06:58:58.401Z,99143.75
2022-12-28T07:01:30.193Z,99134.59
2022-12-28T07:03:58.402Z,99135.16
2022-12-28T07:06:27.996Z,99142.44
2022-12-28T07:09:02.827Z,99140.50
2022-12-28T07:11:30.474Z,99138.88
2022-12-28T07:13:57.874Z,99139.69
2022-12-28T07:16:26.286Z,99138.88
2022-12-28T07:18:56.199Z,99137.75
2022-12-28T07:21:25.987Z,99129.69
2022-12-28T07:23:55.091Z,99127.28
2022-12-28T07:26:25.002Z,99117.81
2022-12-28T07:28:55.630Z,99126.22
2022-12-28T07:31:24.736Z,99120.84
2022-12-28T07:33:55.496Z,99124.31
2022-12-28T07:36:24.793Z,99129.69
2022-12-28T07:38:53.425Z,99119.44
2022-12-28T07:41:29.073Z,99129.13
2022-12-28T07:43:59.309Z,99122.13
2022-12-28T07:46:29.016Z,99125.09
2022-12-28T07:48:57.070Z,99112.72
2022-12-28T07:51:27.916Z,99115.44
2022-12-28T07:53:56.651Z,99100.59
2022-12-28T07:56:24.702Z,99105.25
2022-12-28T07:58:53.641Z,99101.09
2022-12-28T08:01:23.536Z,99095.94
2022-12-28T08:03:54.637Z,99109.66
2022-12-28T08:06:23.342Z,99096.19
2022-12-28T08:08:52.550Z,99101.81
2022-12-28T08:11:25.582Z,99100.50
2022-12-28T08:13:54.739Z,99104.81
2022-12-28T08:16:24.662Z,99093.81
2022-12-28T08:18:52.630Z,99097.34
2022-12-28T08:21:30.151Z,99094.41
2022-12-28T08:23:57.959Z,99096.59
2022-12-28T08:26:33.873Z,99102.53
2022-12-28T08:29:03.394Z,99089.91
2022-12-28T08:31:33.287Z,99095.63
2022-12-28T08:34:01.842Z,99091.06
2022-12-28T08:36:29.365Z,99089.25
2022-12-28T08:38:57.649Z,99100.28
2022-12-28T08:41:25.827Z,99082.78
2022-12-28T08:43:53.932Z,99084.66
2022-12-28T08:46:28.797Z,99082.81
2022-12-28T08:48:57.441Z,99088.25
2022-12-28T08:51:27.032Z,99080.47
2022-12-28T08:53:53.795Z,99079.97
2022-12-28T08:56:27.834Z,99072.19
2022-12-28T08:58:55.862Z,99066.31
2022-12-28T09:01:28.378Z,99071.75
2022-12-28T09:03:57.381Z,99068.53
2022-12-28T09:06:27.624Z,99073.16
2022-12-28T09:09:05.557Z,99072.38
2022-12-28T09:11:36.020Z,99075.63
2022-12-28T09:14:20.336Z,99070.25
2022-12-28T09:16:49.317Z,99063.78
2022-12-28T09:19:16.410Z,99061.06
2022-12-28T09:21:44.879Z,99061.91
2022-12-28T09:24:13.381Z,99055.44
2022-12-28T09:26:40.627Z,99064.34
2022-12-28T09:29:10.592Z,99073.22
2022-12-28T09:31:38.439Z,99074.59
2022-12-28T09:36:53.770Z,99057.09
2022-12-28T09:39:24.413Z,99066.53
2022-12-28T09:42:18.213Z,99058.44
2022-12-28T09:45:12.060Z,99060.06
2022-12-28T09:47:51.944Z,99061.41
2022-12-28T09:50:29.911Z,99065.75
2022-12-28T09:53:15.347Z,99065.19
2022-12-28T09:55:51.260Z,99063.28
2022-12-28T09:58:34.849Z,99060.59
2022-12-28T10:01:03.917Z,99050.34
2022-12-28T10:03:43.484Z,99060.06
2022-12-28T10:06:16.949Z,99049.81
2022-12-28T10:08:50.175Z,99057.91
2022-12-28T10:11:21.988Z,99049.00
2022-12-28T10:13:58.352Z,99043.31
2022-12-28T10:16:28.480Z,99041.44
2022-12-28T10:18:58.030Z,99034.41
2022-12-28T10:21:32.940Z,99028.69
2022-12-28T10:26:48.066Z,99031.59
2022-12-28T10:29:20.732Z,99020.50
2022-12-28T10:32:12.025Z,99008.56
2022-12-28T10:34:57.303Z,99015.22
2022-12-28T10:37:25.906Z,99011.13
2022-12-28T10:39:59.666Z,99002.19
2022-12-28T10:42:32.301Z,99001.06
2022-12-28T10:45:06.397Z,98994.28
2022-12-28T10:47:43.044Z,98999.13
2022-12-28T10:50:40.463Z,98998.28
2022-12-28T10:53:53.129Z,98993.69
2022-12-28T10:56:35.270Z,98996.91
2022-12-28T10:59:11.083Z,98994.72
2022-12-28T11:01:39.503Z,98982.50
2022-12-28T11:04:19.254Z,98971.81
2022-12-28T11:07:07.379Z,98973.94
2022-12-28T11:09:35.840Z,98966.88
2022-12-28T11:12:26.185Z,98972.13
2022-12-28T11:14:54.378Z,98962.22
2022-12-28T11:17:26.568Z,98963.44
2022-12-28T11:19:57.351Z,98964.94
2022-12-28T11:22:27.536Z,98960.53
2022-12-28T11:25:09.810Z,98947.25
2022-12-28T11:27:36.914Z,98951.50
2022-12-28T11:30:15.420Z,98938.69
2022-12-28T11:32:53.392Z,98943.44
2022-12-28T11:35:23.678Z,98940.34
2022-12-28T11:37:52.436Z,98937.19
2022-12-28T11:40:46.026Z,98924.81
2022-12-28T11:43:31.994Z,98918.28
2022-12-28T11:46:04.742Z,98926.94
2022-12-28T11:48:43.623Z,98926.94
2022-12-28T11:51:17.844Z,98918.13
2022-12-28T11:53:44.710Z,98925.16
2022-12-28T11:56:14.094Z,98925.47
2022-12-28T11:58:40.901Z,98924.00
2022-12-28T12:01:40.974Z,98908.16
2022-12-28T12:04:16.788Z,98912.63
2022-12-28T12:06:48.154Z,98901.41
2022-12-28T12:09:21.168Z,98898.03
2022-12-28T12:11:56.962Z,98890.50
2022-12-28T12:14:30.338Z,98893.34
2022-12-28T12:17:05.027Z,98884.78
2022-12-28T12:19:35.863Z,98878.06
2022-12-28T12:22:12.670Z,98869.19
2022-12-28T12:24:48.282Z,98872.03
2022-12-28T12:27:36.523Z,98855.53
2022-12-28T12:30:07.958Z,98865.09
2022-12-28T12:32:58.337Z,98849.81
2022-12-28T12:35:31.304Z,98838.84
2022-12-28T12:38:21.069Z,98835.13
2022-12-28T12:41:12.631Z,98843.56
2022-12-28T12:44:15.084Z,98847.59
2022-12-28T12:47:19.549Z,98841.75
2022-12-28T12:49:57.760Z,98838.84
2022-12-28T12:52:42.810Z,98837.53
2022-12-28T12:55:31.379Z,98833.53
2022-12-28T12:58:08.260Z,98831.50
2022-12-28T13:00:51.589Z,98826.38
2022-12-28T13:03:34.234Z,98825.19
2022-12-28T13:06:05.785Z,98823.66
2022-12-28T13:08:40.720Z,98809.38
2022-12-28T13:11:18.750Z,98808.38
2022-12-28T13:13:48.383Z,98804.94
2022-12-28T13:16:24.907Z,98797.72
2022-12-28T13:19:01.590Z,98801.91
2022-12-28T13:21:43.192Z,98793.56
2022-12-28T13:24:24.329Z,98786.81
2022-12-28T13:26:52.047Z,98776.53
2022-12-28T13:29:21.908Z,98760.09
2022-12-28T13:31:50.001Z,98766.88
2022-12-28T13:34:24.105Z,98766.00
2022-12-28T13:36:58.164Z,98759.25
2022-12-28T13:39:33.117Z,98767.41
2022-12-28T13:42:05.976Z,98770.09
2022-12-28T13:45:02.655Z,98757.47
2022-12-28T13:47:40.208Z,98751.31
2022-12-28T13:50:24.413Z,98754.72
2022-12-28T13:53:15.847Z,98755.69
2022-12-28T13:55:51.050Z,98754.53
2022-12-28T13:58:26.841Z,98757.41
2022-12-28T14:00:56.874Z,98769.19
2022-12-28T14:03:25.603Z,98761.25
2022-12-28T14:06:00.243Z,98757.31
2022-12-28T14:08:29.463Z,98747.34
2022-12-28T14:10:57.520Z,98750.94
2022-12-28T14:13:26.704Z,98745.00
2022-12-28T14:15:56.268Z,98740.69
2022-12-28T14:18:24.355Z,98741.28
2022-12-28T14:20:56.078Z,98737.03
2022-12-28T14:23:28.828Z,98747.88
2022-12-28T14:26:04.918Z,98737.09
2022-12-28T14:28:47.622Z,98737.97
2022-12-28T14:31:22.743Z,98728.53
2022-12-28T14:33:52.081Z,98736.94
2022-12-28T14:36:34.253Z,98738.31
2022-12-28T14:41:49.405Z,98734.66
2022-12-28T14:44:30.881Z,98729.25
2022-12-28T14:46:58.657Z,98718.50
2022-12-28T14:49:30.925Z,98717.69
2022-12-28T14:52:17.826Z,98712.34
2022-12-28T14:54:50.710Z,98726.75
2022-12-28T14:57:23.709Z,98710.88
2022-12-28T15:00:18.101Z,98714.75
2022-12-28T15:02:46.572Z,98706.38
2022-12-28T15:05:34.545Z,98705.88
2022-12-28T15:08:02.154Z,98702.97
2022-12-28T15:10:44.255Z,98708.88
2022-12-28T15:13:11.149Z,98694.91
2022-12-28T15:15:38.363Z,98698.16
2022-12-28T15:18:05.370Z,98692.59
2022-12-28T15:20:35.798Z,98691.53
2022-12-28T15:23:02.680Z,98690.50
2022-12-28T15:25:29.434Z,98693.47
2022-12-28T15:27:56.221Z,98685.38
2022-12-28T15:30:28.756Z,98686.25
2022-12-28T15:32:56.557Z,98692.50
2022-12-28T15:35:23.322Z,98683.66
2022-12-28T15:37:50.192Z,98678.31
2022-12-28T15:40:18.003Z,98678.59
2022-12-28T15:42:46.134Z,98672.97
2022-12-28T15:45:13.884Z,98660.81
2022-12-28T15:47:40.639Z,98665.44
2022-12-28T15:50:07.787Z,98668.41
2022-12-28T15:52:34.725Z,98658.16
2022-12-28T15:55:01.912Z,98654.94
2022-12-28T15:57:29.171Z,98645.75
2022-12-28T15:59:55.983Z,98641.16
2022-12-28T16:02:23.816Z,98649.78
2022-12-28T16:04:50.705Z,98655.41
2022-12-28T16:07:19.097Z,98653.22
2022-12-28T16:09:46.318Z,98645.13
2022-12-28T16:12:17.064Z,98647.81
2022-12-28T16:14:47.159Z,98644.59
2022-12-28T16:17:14.519Z,98644.59
2022-12-28T16:19:41.816Z,98643.56
2022-12-28T16:22:08.587Z,98647.66
2022-12-28T16:24:36.101Z,98641.78
2022-12-28T16:27:03.204Z,98652.63
2022-12-28T16:29:30.239Z,98646.47
2022-12-28T16:31:59.594Z,98634.28
2022-12-28T16:34:28.135Z,98637.50
2022-12-28T16:36:58.155Z,98639.13
2022-12-28T16:39:28.317Z,98626.72
2022-12-28T16:41:57.640Z,98631.00
2022-12-28T16:44:27.230Z,98620.22
2022-12-28T16:46:58.159Z,98629.13
2022-12-28T16:49:26.062Z,98629.97
2022-12-28T16:51:52.859Z,98629.09
2022-12-28T16:54:22.553Z,98626.31
2022-12-28T16:56:50.887Z,98620.34
2022-12-28T16:59:20.842Z,98624.38
2022-12-28T17:01:48.612Z,98629.28
2022-12-28T17:04:15.702Z,98624.97
2022-12-28T17:06:43.610Z,98621.16
2022-12-28T17:09:10.786Z,98615.75
2022-12-28T17:11:37.670Z,98612.81
2022-12-28T17:14:07.180Z,98610.94
2022-12-28T17:16:34.556Z,98618.75
2022-12-28T17:19:01.931Z,98614.38
2022-12-28T17:21:33.674Z,98601.38
2022-12-28T17:24:02.684Z,98604.31
2022-12-28T17:26:33.362Z,98599.72
2022-12-28T17:29:00.319Z,98603.22
2022-12-28T17:31:27.515Z,98592.94
2022-12-28T17:33:57.746Z,98591.03
2022-12-28T17:36:28.013Z,98591.34
2022-12-28T17:38:54.827Z,98587.34
2022-12-28T17:41:27.563Z,98587.72
2022-12-28T17:43:56.742Z,98582.66
2022-12-28T17:46:26.389Z,98585.97
2022-12-28T17:48:54.678Z,98578.44
2022-12-28T17:51:23.746Z,98571.19
2022-12-28T17:53:50.810Z,98576.66
2022-12-28T17:56:17.979Z,98576.44
2022-12-28T17:58:48.038Z,98580.22
2022-12-28T18:01:15.269Z,98574.78
2022-12-28T18:03:43.219Z,98573.94
2022-12-28T18:06:10.381Z,98569.88
2022-12-28T18:08:37.461Z,98560.69
2022-12-28T18:11:04.281Z,98566.88
2022-12-28T18:13:31.262Z,98550.16
2022-12-28T18:15:58.190Z,98540.47
2022-12-28T18:18:25.049Z,98529.66
2022-12-28T18:20:57.554Z,98535.56
2022-12-28T18:23:24.634Z,98538.56
2022-12-28T18:25:52.925Z,98538.84
2022-12-28T18:28:20.542Z,98518.34
2022-12-28T18:30:47.392Z,98513.53
2022-12-28T18:33:17.486Z,98504.91
2022-12-28T18:35:44.477Z,98511.13
2022-12-28T18:38:11.302Z,98505.72
2022-12-28T18:40:38.135Z,98498.72
2022-12-28T18:43:05.654Z,98490.88
2022-12-28T18:45:32.901Z,98500.59
2022-12-28T18:47:59.891Z,98493.91
2022-12-28T18:50:27.257Z,98489.34
2022-12-28T18:52:54.165Z,98465.56
2022-12-28T18:55:22.235Z,98472.56
2022-12-28T18:57:49.192Z,98475.25
2022-12-28T19:00:16.514Z,98465.56
2022-12-28T19:02:43.482Z,98471.78
2022-12-28T19:05:10.516Z,98445.56
2022-12-28T19:07:37.527Z,98453.41
2022-12-28T19:10:15.238Z,98450.69
2022-12-28T19:12:44.109Z,98451.22
2022-12-28T19:15:11.327Z,98454.69
2022-12-28T19:17:38.742Z,98454.94
2022-12-28T19:20:08.828Z,98451.94
2022-12-28T19:22:35.660Z,98455.47
2022-12-28T19:25:02.557Z,98449.25
2022-12-28T19:27:29.421Z,98447.63
2022-12-28T19:29:56.142Z,98446.53
2022-12-28T19:32:29.199Z,98455.72
2022-12-28T19:34:55.904Z,98443.84
2022-12-28T19:37:22.814Z,98457.06
2022-12-28T19:39:54.737Z,98447.06
2022-12-28T19:42:26.521Z,98438.16
2022-12-28T19:44:53.359Z,98447.63
2022-12-28T19:47:20.237Z,98447.63
2022-12-28T19:49:47.027Z,98448.44
2022-12-28T19:52:13.810Z,98451.94
2022-12-28T19:54:41.777Z,98447.63
2022-12-28T19:57:08.589Z,98444.94
2022-12-28T19:59:38.106Z,98441.72
2022-12-28T20:02:05.186Z,98437.94
2022-12-28T20:04:32.087Z,98436.84
2022-12-28T20:07:00.707Z,98431.44
2022-12-28T20:09:30.417Z,98411.22
2022-12-28T20:11:57.268Z,98416.34
2022-12-28T20:14:25.298Z,98403.34
2022-12-28T20:16:52.509Z,98403.28
2022-12-28T20:19:19.382Z,98400.56
2022-12-28T20:21:46.337Z,98411.09
2022-12-28T20:24:14.915Z,98402.69
2022-12-28T20:26:44.616Z,98395.91
2022-12-28T20:29:13.476Z,98399.13
2022-12-28T20:31:45.869Z,98396.13
2022-12-28T20:34:15.910Z,98394.53
2022-12-28T20:36:43.061Z,98393.22
2022-12-28T20:39:12.038Z,98400.88
2022-12-28T20:41:57.499Z,98392.03
2022-12-28T20:44:28.044Z,98386.50
2022-12-28T20:46:56.381Z,98376.56
2022-12-28T20:49:24.711Z,98380.13
2022-12-28T20:51:52.255Z,98381.00
2022-12-28T20:54:19.736Z,98386.44
2022-12-28T20:56:53.948Z,98371.66
2022-12-28T20:59:21.916Z,98379.00
2022-12-28T21:01:48.885Z,98374.47
2022-12-28T21:04:15.789Z,98372.56
2022-12-28T21:06:42.637Z,98360.16
2022-12-28T21:09:09.758Z,98368.91
2022-12-28T21:11:36.673Z,98357.88
2022-12-28T21:14:16.184Z,98349.78
2022-12-28T21:16:47.018Z,98348.47
2022-12-28T21:19:13.999Z,98342.25
2022-12-28T21:21:41.036Z,98347.97
2022-12-28T21:24:07.912Z,98348.53
2022-12-28T21:26:34.631Z,98335.06
2022-12-28T21:29:01.416Z,98336.94
2022-12-28T21:31:28.149Z,98342.91
2022-12-28T21:33:55.912Z,98334.81
2022-12-28T21:36:25.745Z,98333.44
2022-12-28T21:38:52.546Z,98322.53
2022-12-28T21:41:40.391Z,98324.97
2022-12-28T21:44:12.168Z,98314.78
2022-12-28T21:46:39.561Z,98324.41
2022-12-28T21:49:06.957Z,98320.31
2022-12-28T21:51:40.996Z,98328.25
2022-12-28T21:54:14.276Z,98317.63
2022-12-28T21:56:45.669Z,98317.81
2022-12-28T21:59:13.622Z,98323.22
2022-12-28T22:02:00.872Z,98311.31
2022-12-28T22:04:47.183Z,98315.13
2022-12-28T22:07:16.716Z,98317.47
2022-12-28T22:10:02.285Z,98307.47
2022-12-28T22:12:35.162Z,98319.38
2022-12-28T22:15:25.805Z,98318.06
2022-12-28T22:17:58.180Z,98310.72
2022-12-28T22:20:27.079Z,98314.63
2022-12-28T22:23:00.085Z,98315.78
2022-12-28T22:25:29.059Z,98314.50
2022-12-28T22:27:56.306Z,98322.06
2022-12-28T22:30:23.433Z,98314.84
2022-12-28T22:32:50.281Z,98301.72
2022-12-28T22:35:18.584Z,98304.44
2022-12-28T22:37:45.344Z,98304.69
2022-12-28T22:40:13.112Z,98304.69
2022-12-28T22:42:43.564Z,98294.72
2022-12-28T22:45:14.878Z,98300.41
2022-12-28T22:47:41.950Z,98305.94
2022-12-28T22:50:12.446Z,98309.88
2022-12-28T22:52:39.307Z,98319.22
2022-12-28T22:55:06.954Z,98301.84
2022-12-28T22:57:34.157Z,98298.06
2022-12-28T23:00:00.999Z,98301.34
2022-12-28T23:02:30.373Z,98304.41
2022-12-28T23:04:57.309Z,98299.59
2022-12-28T23:07:24.046Z,98291.72
2022-12-28T23:09:50.825Z,98270.63
2022-12-28T23:12:17.622Z,98295.75
2022-12-28T23:15:03.012Z,98281.03
2022-12-28T23:17:29.814Z,98286.22
2022-12-28T23:20:15.117Z,98289.41
2022-12-28T23:23:00.653Z,98290.78
2022-12-28T23:25:46.279Z,98291.09
2022-12-28T23:28:16.009Z,98276.66
2022-12-28T23:30:46.585Z,98270.63
2022-12-28T23:33:14.180Z,98266.41
2022-12-28T23:35:41.551Z,98260.63
2022-12-28T23:38:08.315Z,98271.88
2022-12-28T23:40:38.696Z,98270.69
2022-12-28T23:43:06.007Z,98265.28
2022-12-28T23:45:34.027Z,98264.50
2022-12-28T23:48:00.790Z,98257.66
2022-12-28T23:50:27.462Z,98250.47
2022-12-28T23:52:54.252Z,98256.09
2022-12-28T23:55:21.153Z,98245.88
2022-12-28T23:57:47.933Z,98245.72
